sensor_id;sensor_type;location;lat;lon;timestamp;pressure;altitude;pressure_sealevel;temperature;humidity
48156;BME280;35568;48.104;11.782;2024-03-08T00:02:12;95256.38;;;0.65;53.22
48156;BME280;35568;48.104;11.782;2024-03-08T00:04:40;95254.25;;;0.54;53.45
48156;BME280;35568;48.104;11.782;2024-03-08T00:07:07;95253.17;;;0.59;53.53
48156;BME280;35568;48.104;11.782;2024-03-08T00:09:34;95255.49;;;0.48;53.37
48156;BME280;35568;48.104;11.782;2024-03-08T00:12:02;95254.49;;;0.32;53.40
48156;BME280;35568;48.104;11.782;2024-03-08T00:14:29;95254.38;;;0.89;53.46
48156;BME280;35568;48.104;11.782;2024-03-08T00:16:56;95256.64;;;0.50;53.20
48156;BME280;35568;48.104;11.782;2024-03-08T00:19:23;95254.39;;;0.52;53.37
48156;BME280;35568;48.104;11.782;2024-03-08T00:21:50;95254.75;;;0.81;53.60
48156;BME280;35568;48.104;11.782;2024-03-08T00:24:17;95250.43;;;0.77;52.89
48156;BME280;35568;48.104;11.782;2024-03-08T00:26:44;95250.06;;;1.22;52.89
48156;BME280;35568;48.104;11.782;2024-03-08T00:29:11;95248.55;;;0.75;53.28
48156;BME280;35568;48.104;11.782;2024-03-08T00:31:39;95246.04;;;0.60;53.25
48156;BME280;35568;48.104;11.782;2024-03-08T00:34:06;95244.65;;;0.72;53.36
48156;BME280;35568;48.104;11.782;2024-03-08T00:36:33;95241.47;;;0.37;53.39
48156;BME280;35568;48.104;11.782;2024-03-08T00:39:01;95243.40;;;0.76;53.52
48156;BME280;35568;48.104;11.782;2024-03-08T00:41:29;95238.67;;;0.75;53.12
48156;BME280;35568;48.104;11.782;2024-03-08T00:43:55;95236.74;;;0.80;53.14
48156;BME280;35568;48.104;11.782;2024-03-08T00:46:22;95229.85;;;0.67;53.55
48156;BME280;35568;48.104;11.782;2024-03-08T00:48:50;95230.02;;;0.48;53.21
48156;BME280;35568;48.104;11.782;2024-03-08T00:51:17;95225.41;;;0.25;53.59
48156;BME280;35568;48.104;11.782;2024-03-08T00:53:43;95226.47;;;0.44;54.04
48156;BME280;35568;48.104;11.782;2024-03-08T00:56:11;95222.21;;;0.54;54.00
48156;BME280;35568;48.104;11.782;2024-03-08T00:58:38;95221.53;;;0.56;53.46
48156;BME280;35568;48.104;11.782;2024-03-08T01:01:05;95218.12;;;0.67;53.35
48156;BME280;35568;48.104;11.782;2024-03-08T01:03:33;95219.48;;;0.74;53.44
48156;BME280;35568;48.104;11.782;2024-03-08T01:06:00;95212.28;;;0.90;53.23
48156;BME280;35568;48.104;11.782;2024-03-08T01:08:27;95209.41;;;0.71;53.31
48156;BME280;35568;48.104;11.782;2024-03-08T01:10:55;95202.61;;;0.48;53.58
48156;BME280;35568;48.104;11.782;2024-03-08T01:13:22;95199.07;;;0.61;53.85
48156;BME280;35568;48.104;11.782;2024-03-08T01:15:49;95196.74;;;0.55;53.73
48156;BME280;35568;48.104;11.782;2024-03-08T01:18:16;95194.20;;;0.50;53.92
48156;BME280;35568;48.104;11.782;2024-03-08T01:20:43;95194.10;;;0.22;54.40
48156;BME280;35568;48.104;11.782;2024-03-08T01:23:10;95191.78;;;0.47;54.26
48156;BME280;35568;48.104;11.782;2024-03-08T01:25:38;95185.81;;;0.64;53.91
48156;BME280;35568;48.104;11.782;2024-03-08T01:28:06;95183.02;;;0.33;54.04
48156;BME280;35568;48.104;11.782;2024-03-08T01:30:32;95179.16;;;-0.04;54.38
48156;BME280;35568;48.104;11.782;2024-03-08T01:33:00;95172.78;;;-0.02;54.43
48156;BME280;35568;48.104;11.782;2024-03-08T01:35:27;95165.57;;;0.36;54.32
48156;BME280;35568;48.104;11.782;2024-03-08T01:37:54;95166.53;;;0.27;54.55
48156;BME280;35568;48.104;11.782;2024-03-08T01:40:21;95164.43;;;-0.06;54.62
48156;BME280;35568;48.104;11.782;2024-03-08T01:42:49;95162.31;;;0.31;54.73
48156;BME280;35568;48.104;11.782;2024-03-08T01:45:16;95159.11;;;-0.07;54.93
48156;BME280;35568;48.104;11.782;2024-03-08T01:47:42;95158.25;;;0.17;54.79
48156;BME280;35568;48.104;11.782;2024-03-08T01:50:10;95153.38;;;0.35;54.98
48156;BME280;35568;48.104;11.782;2024-03-08T01:52:37;95149.02;;;0.40;54.94
48156;BME280;35568;48.104;11.782;2024-03-08T01:55:05;95146.69;;;0.22;55.00
48156;BME280;35568;48.104;11.782;2024-03-08T01:57:33;95145.60;;;0.27;54.63
48156;BME280;35568;48.104;11.782;2024-03-08T02:00:01;95143.52;;;0.40;54.79
48156;BME280;35568;48.104;11.782;2024-03-08T02:02:28;95143.19;;;0.07;54.58
48156;BME280;35568;48.104;11.782;2024-03-08T02:04:57;95141.40;;;0.27;54.81
48156;BME280;35568;48.104;11.782;2024-03-08T02:07:24;95135.54;;;0.37;54.24
48156;BME280;35568;48.104;11.782;2024-03-08T02:09:51;95133.62;;;0.42;54.57
48156;BME280;35568;48.104;11.782;2024-03-08T02:12:20;95133.20;;;-0.06;54.85
48156;BME280;35568;48.104;11.782;2024-03-08T02:14:47;95130.16;;;0.05;54.43
48156;BME280;35568;48.104;11.782;2024-03-08T02:17:15;95132.34;;;0.53;54.42
48156;BME280;35568;48.104;11.782;2024-03-08T02:19:42;95128.79;;;0.06;54.17
48156;BME280;35568;48.104;11.782;2024-03-08T02:22:09;95125.16;;;0.37;53.91
48156;BME280;35568;48.104;11.782;2024-03-08T02:24:37;95122.98;;;0.68;53.75
48156;BME280;35568;48.104;11.782;2024-03-08T02:27:05;95118.92;;;0.23;53.33
48156;BME280;35568;48.104;11.782;2024-03-08T02:29:33;95116.42;;;0.45;53.86
48156;BME280;35568;48.104;11.782;2024-03-08T02:32:00;95109.14;;;0.30;54.13
48156;BME280;35568;48.104;11.782;2024-03-08T02:34:27;95109.96;;;0.38;54.66
48156;BME280;35568;48.104;11.782;2024-03-08T02:36:55;95112.38;;;0.21;54.49
48156;BME280;35568;48.104;11.782;2024-03-08T02:39:21;95109.27;;;-0.13;54.73
48156;BME280;35568;48.104;11.782;2024-03-08T02:41:48;95108.13;;;0.10;54.93
48156;BME280;35568;48.104;11.782;2024-03-08T02:44:16;95104.47;;;0.06;54.98
48156;BME280;35568;48.104;11.782;2024-03-08T02:46:43;95105.77;;;0.13;55.00
48156;BME280;35568;48.104;11.782;2024-03-08T02:49:11;95101.07;;;0.47;54.88
48156;BME280;35568;48.104;11.782;2024-03-08T02:51:37;95101.41;;;0.26;54.42
48156;BME280;35568;48.104;11.782;2024-03-08T02:54:05;95102.52;;;0.10;55.02
48156;BME280;35568;48.104;11.782;2024-03-08T02:56:32;95100.86;;;0.18;54.70
48156;BME280;35568;48.104;11.782;2024-03-08T02:58:59;95101.17;;;0.15;54.84
48156;BME280;35568;48.104;11.782;2024-03-08T03:01:25;95101.66;;;0.10;54.98
48156;BME280;35568;48.104;11.782;2024-03-08T03:03:52;95102.78;;;0.11;55.18
48156;BME280;35568;48.104;11.782;2024-03-08T03:06:20;95098.87;;;0.21;55.10
48156;BME280;35568;48.104;11.782;2024-03-08T03:08:47;95097.33;;;0.13;55.08
48156;BME280;35568;48.104;11.782;2024-03-08T03:11:14;95095.71;;;0.04;55.33
48156;BME280;35568;48.104;11.782;2024-03-08T03:13:42;95096.25;;;0.22;54.83
48156;BME280;35568;48.104;11.782;2024-03-08T03:16:09;95097.99;;;0.53;54.53
48156;BME280;35568;48.104;11.782;2024-03-08T03:18:36;95101.27;;;0.50;54.19
48156;BME280;35568;48.104;11.782;2024-03-08T03:21:03;95101.64;;;0.64;54.00
48156;BME280;35568;48.104;11.782;2024-03-08T03:23:30;95099.53;;;0.23;53.99
48156;BME280;35568;48.104;11.782;2024-03-08T03:25:57;95093.84;;;0.58;54.04
48156;BME280;35568;48.104;11.782;2024-03-08T03:28:24;95091.71;;;0.58;54.01
48156;BME280;35568;48.104;11.782;2024-03-08T03:30:51;95090.07;;;0.40;53.66
48156;BME280;35568;48.104;11.782;2024-03-08T03:33:19;95091.95;;;0.21;53.80
48156;BME280;35568;48.104;11.782;2024-03-08T03:35:46;95092.82;;;0.31;54.14
48156;BME280;35568;48.104;11.782;2024-03-08T03:38:13;95093.05;;;0.42;53.81
48156;BME280;35568;48.104;11.782;2024-03-08T03:40:40;95090.79;;;0.33;54.17
48156;BME280;35568;48.104;11.782;2024-03-08T03:43:08;95089.37;;;-0.08;54.33
48156;BME280;35568;48.104;11.782;2024-03-08T03:45:35;95086.62;;;0.14;54.08
48156;BME280;35568;48.104;11.782;2024-03-08T03:48:04;95087.02;;;0.18;54.36
48156;BME280;35568;48.104;11.782;2024-03-08T03:50:31;95088.23;;;0.10;54.55
48156;BME280;35568;48.104;11.782;2024-03-08T03:52:59;95085.85;;;-0.11;54.87
48156;BME280;35568;48.104;11.782;2024-03-08T03:55:26;95084.50;;;0.44;54.92
48156;BME280;35568;48.104;11.782;2024-03-08T03:57:53;95083.32;;;0.43;54.90
48156;BME280;35568;48.104;11.782;2024-03-08T04:03:00;95077.57;;;0.12;54.59
48156;BME280;35568;48.104;11.782;2024-03-08T04:05:28;95076.89;;;-0.02;54.73
48156;BME280;35568;48.104;11.782;2024-03-08T04:07:55;95076.21;;;-0.35;55.01
48156;BME280;35568;48.104;11.782;2024-03-08T04:10:22;95074.14;;;0.05;54.68
48156;BME280;35568;48.104;11.782;2024-03-08T04:12:49;95069.35;;;-0.07;55.02
48156;BME280;35568;48.104;11.782;2024-03-08T04:15:17;95069.51;;;0.21;54.69
48156;BME280;35568;48.104;11.782;2024-03-08T04:17:44;95066.12;;;-0.11;55.04
48156;BME280;35568;48.104;11.782;2024-03-08T04:20:11;95066.76;;;0.09;54.76
48156;BME280;35568;48.104;11.782;2024-03-08T04:22:38;95066.92;;;0.15;54.86
48156;BME280;35568;48.104;11.782;2024-03-08T04:25:07;95067.03;;;0.19;54.23
48156;BME280;35568;48.104;11.782;2024-03-08T04:27:35;95068.19;;;-0.28;54.86
48156;BME280;35568;48.104;11.782;2024-03-08T04:30:03;95064.93;;;-0.13;54.73
48156;BME280;35568;48.104;11.782;2024-03-08T04:32:31;95063.28;;;-0.06;55.03
48156;BME280;35568;48.104;11.782;2024-03-08T04:34:59;95064.27;;;0.15;54.75
48156;BME280;35568;48.104;11.782;2024-03-08T04:37:26;95062.07;;;-0.10;54.71
48156;BME280;35568;48.104;11.782;2024-03-08T04:39:53;95059.70;;;-0.02;54.76
48156;BME280;35568;48.104;11.782;2024-03-08T04:42:20;95058.28;;;-0.23;55.11
48156;BME280;35568;48.104;11.782;2024-03-08T04:44:48;95056.75;;;-0.16;55.40
48156;BME280;35568;48.104;11.782;2024-03-08T04:47:15;95055.30;;;-0.19;55.34
48156;BME280;35568;48.104;11.782;2024-03-08T04:49:42;95055.78;;;0.04;55.49
48156;BME280;35568;48.104;11.782;2024-03-08T04:52:09;95051.76;;;0.20;54.94
48156;BME280;35568;48.104;11.782;2024-03-08T04:54:36;95052.60;;;-0.00;55.14
48156;BME280;35568;48.104;11.782;2024-03-08T04:57:03;95049.36;;;-0.12;54.95
48156;BME280;35568;48.104;11.782;2024-03-08T04:59:30;95051.41;;;-0.11;54.57
48156;BME280;35568;48.104;11.782;2024-03-08T05:01:57;95049.50;;;0.13;55.15
48156;BME280;35568;48.104;11.782;2024-03-08T05:04:24;95052.15;;;-0.45;55.24
48156;BME280;35568;48.104;11.782;2024-03-08T05:06:51;95052.70;;;-0.22;55.67
48156;BME280;35568;48.104;11.782;2024-03-08T05:09:18;95051.68;;;0.12;55.18
48156;BME280;35568;48.104;11.782;2024-03-08T05:11:46;95052.66;;;-0.11;55.12
48156;BME280;35568;48.104;11.782;2024-03-08T05:14:14;95055.44;;;0.15;55.10
48156;BME280;35568;48.104;11.782;2024-03-08T05:16:42;95054.86;;;-0.09;55.07
48156;BME280;35568;48.104;11.782;2024-03-08T05:19:09;95056.06;;;-0.11;55.14
48156;BME280;35568;48.104;11.782;2024-03-08T05:21:36;95048.42;;;0.11;54.46
48156;BME280;35568;48.104;11.782;2024-03-08T05:24:04;95050.23;;;-0.05;54.87
48156;BME280;35568;48.104;11.782;2024-03-08T05:26:31;95046.22;;;0.17;55.18
48156;BME280;35568;48.104;11.782;2024-03-08T05:28:58;95039.23;;;0.16;54.96
48156;BME280;35568;48.104;11.782;2024-03-08T05:31:25;95039.70;;;0.14;54.75
48156;BME280;35568;48.104;11.782;2024-03-08T05:33:52;95037.11;;;0.28;54.66
48156;BME280;35568;48.104;11.782;2024-03-08T05:36:19;95039.33;;;0.46;54.22
48156;BME280;35568;48.104;11.782;2024-03-08T05:38:47;95034.31;;;0.30;54.26
48156;BME280;35568;48.104;11.782;2024-03-08T05:41:15;95033.95;;;0.15;54.22
48156;BME280;35568;48.104;11.782;2024-03-08T05:43:42;95030.49;;;0.09;54.42
48156;BME280;35568;48.104;11.782;2024-03-08T05:46:09;95031.57;;;0.48;54.39
48156;BME280;35568;48.104;11.782;2024-03-08T05:48:36;95030.24;;;0.26;54.43
48156;BME280;35568;48.104;11.782;2024-03-08T05:51:03;95028.93;;;0.54;54.92
48156;BME280;35568;48.104;11.782;2024-03-08T05:53:30;95028.41;;;0.78;54.31
48156;BME280;35568;48.104;11.782;2024-03-08T05:55:57;95030.09;;;0.99;54.14
48156;BME280;35568;48.104;11.782;2024-03-08T05:58:25;95026.46;;;0.64;53.71
48156;BME280;35568;48.104;11.782;2024-03-08T06:00:52;95023.64;;;0.42;54.22
48156;BME280;35568;48.104;11.782;2024-03-08T06:03:19;95025.00;;;0.37;53.98
48156;BME280;35568;48.104;11.782;2024-03-08T06:05:47;95021.18;;;0.51;54.09
48156;BME280;35568;48.104;11.782;2024-03-08T06:08:14;95022.14;;;0.40;54.39
48156;BME280;35568;48.104;11.782;2024-03-08T06:10:41;95023.02;;;0.27;54.26
48156;BME280;35568;48.104;11.782;2024-03-08T06:13:08;95023.13;;;0.46;54.04
48156;BME280;35568;48.104;11.782;2024-03-08T06:15:36;95021.52;;;0.40;53.91
48156;BME280;35568;48.104;11.782;2024-03-08T06:18:03;95019.80;;;0.22;53.97
48156;BME280;35568;48.104;11.782;2024-03-08T06:20:31;95019.87;;;0.34;54.15
48156;BME280;35568;48.104;11.782;2024-03-08T06:22:57;95020.00;;;0.49;53.75
48156;BME280;35568;48.104;11.782;2024-03-08T06:25:25;95020.75;;;0.47;54.25
48156;BME280;35568;48.104;11.782;2024-03-08T06:27:52;95022.91;;;0.22;53.83
48156;BME280;35568;48.104;11.782;2024-03-08T06:30:19;95025.33;;;0.49;53.85
48156;BME280;35568;48.104;11.782;2024-03-08T06:32:46;95022.40;;;0.39;54.32
48156;BME280;35568;48.104;11.782;2024-03-08T06:35:13;95023.36;;;0.52;53.70
48156;BME280;35568;48.104;11.782;2024-03-08T06:37:40;95022.26;;;0.59;54.00
48156;BME280;35568;48.104;11.782;2024-03-08T06:40:07;95022.09;;;0.29;54.15
48156;BME280;35568;48.104;11.782;2024-03-08T06:42:35;95023.19;;;0.46;54.03
48156;BME280;35568;48.104;11.782;2024-03-08T06:45:02;95028.97;;;0.55;53.72
48156;BME280;35568;48.104;11.782;2024-03-08T06:47:29;95026.13;;;0.50;54.16
48156;BME280;35568;48.104;11.782;2024-03-08T06:49:56;95024.87;;;0.56;53.89
48156;BME280;35568;48.104;11.782;2024-03-08T06:52:24;95024.48;;;-0.29;53.41
48156;BME280;35568;48.104;11.782;2024-03-08T06:54:51;95024.17;;;0.67;54.07
48156;BME280;35568;48.104;11.782;2024-03-08T06:57:18;95020.46;;;0.90;53.08
48156;BME280;35568;48.104;11.782;2024-03-08T06:59:46;95024.36;;;0.98;53.01
48156;BME280;35568;48.104;11.782;2024-03-08T07:02:13;95026.98;;;1.10;52.92
48156;BME280;35568;48.104;11.782;2024-03-08T07:04:40;95028.50;;;1.10;52.64
48156;BME280;35568;48.104;11.782;2024-03-08T07:07:07;95023.73;;;1.42;52.45
48156;BME280;35568;48.104;11.782;2024-03-08T07:09:34;95026.71;;;1.80;52.34
48156;BME280;35568;48.104;11.782;2024-03-08T07:12:02;95023.07;;;1.46;52.60
48156;BME280;35568;48.104;11.782;2024-03-08T07:14:29;95024.79;;;1.71;51.91
48156;BME280;35568;48.104;11.782;2024-03-08T07:16:56;95024.33;;;1.65;51.52
48156;BME280;35568;48.104;11.782;2024-03-08T07:19:23;95026.46;;;1.25;52.18
48156;BME280;35568;48.104;11.782;2024-03-08T07:21:50;95024.50;;;0.94;52.65
48156;BME280;35568;48.104;11.782;2024-03-08T07:24:17;95023.03;;;1.50;52.32
48156;BME280;35568;48.104;11.782;2024-03-08T07:26:44;95016.74;;;1.89;51.56
48156;BME280;35568;48.104;11.782;2024-03-08T07:29:11;95019.51;;;2.01;51.00
48156;BME280;35568;48.104;11.782;2024-03-08T07:31:39;95018.34;;;1.71;51.37
48156;BME280;35568;48.104;11.782;2024-03-08T07:34:06;95016.05;;;1.82;51.45
48156;BME280;35568;48.104;11.782;2024-03-08T07:36:33;95014.31;;;2.18;50.65
48156;BME280;35568;48.104;11.782;2024-03-08T07:39:01;95011.96;;;2.04;50.91
48156;BME280;35568;48.104;11.782;2024-03-08T07:41:28;95013.13;;;1.82;50.90
48156;BME280;35568;48.104;11.782;2024-03-08T07:43:55;95011.44;;;1.96;51.26
48156;BME280;35568;48.104;11.782;2024-03-08T07:46:22;95012.15;;;2.11;50.46
48156;BME280;35568;48.104;11.782;2024-03-08T07:48:50;95010.45;;;2.30;50.65
48156;BME280;35568;48.104;11.782;2024-03-08T07:51:17;95009.70;;;2.96;50.38
48156;BME280;35568;48.104;11.782;2024-03-08T07:53:43;95005.97;;;3.10;49.65
48156;BME280;35568;48.104;11.782;2024-03-08T07:56:10;95004.19;;;3.54;48.83
48156;BME280;35568;48.104;11.782;2024-03-08T07:58:38;95005.46;;;3.27;48.84
48156;BME280;35568;48.104;11.782;2024-03-08T08:01:04;95005.34;;;2.99;48.54
48156;BME280;35568;48.104;11.782;2024-03-08T08:03:32;95002.42;;;3.14;48.21
48156;BME280;35568;48.104;11.782;2024-03-08T08:05:59;95000.77;;;2.85;48.59
48156;BME280;35568;48.104;11.782;2024-03-08T08:08:26;95000.40;;;2.83;48.67
48156;BME280;35568;48.104;11.782;2024-03-08T08:10:53;94998.78;;;2.76;48.57
48156;BME280;35568;48.104;11.782;2024-03-08T08:13:20;94997.68;;;3.52;47.99
48156;BME280;35568;48.104;11.782;2024-03-08T08:15:47;94995.74;;;2.74;48.46
48156;BME280;35568;48.104;11.782;2024-03-08T08:18:13;94998.29;;;3.20;49.04
48156;BME280;35568;48.104;11.782;2024-03-08T08:20:40;94990.85;;;3.82;47.49
48156;BME280;35568;48.104;11.782;2024-03-08T08:23:07;94991.63;;;3.77;47.09
48156;BME280;35568;48.104;11.782;2024-03-08T08:25:35;94993.14;;;4.28;46.32
48156;BME280;35568;48.104;11.782;2024-03-08T08:28:01;94992.73;;;4.11;46.48
48156;BME280;35568;48.104;11.782;2024-03-08T08:30:28;94986.89;;;4.51;46.32
48156;BME280;35568;48.104;11.782;2024-03-08T08:32:56;94985.67;;;4.24;46.10
48156;BME280;35568;48.104;11.782;2024-03-08T08:35:23;94980.23;;;4.75;45.68
48156;BME280;35568;48.104;11.782;2024-03-08T08:37:50;94976.33;;;5.11;45.79
48156;BME280;35568;48.104;11.782;2024-03-08T08:40:17;94969.57;;;5.26;44.24
48156;BME280;35568;48.104;11.782;2024-03-08T08:42:45;94964.00;;;5.64;44.59
48156;BME280;35568;48.104;11.782;2024-03-08T08:45:12;94962.76;;;5.16;44.25
48156;BME280;35568;48.104;11.782;2024-03-08T08:47:39;94964.34;;;5.13;44.56
48156;BME280;35568;48.104;11.782;2024-03-08T08:50:07;94963.15;;;5.20;45.08
48156;BME280;35568;48.104;11.782;2024-03-08T08:52:34;94963.75;;;5.19;44.56
48156;BME280;35568;48.104;11.782;2024-03-08T08:55:01;94960.03;;;5.67;43.93
48156;BME280;35568;48.104;11.782;2024-03-08T08:57:28;94960.34;;;6.18;43.02
48156;BME280;35568;48.104;11.782;2024-03-08T08:59:56;94958.22;;;6.21;43.04
48156;BME280;35568;48.104;11.782;2024-03-08T09:02:23;94952.63;;;6.19;43.18
48156;BME280;35568;48.104;11.782;2024-03-08T09:04:49;94950.44;;;5.79;42.28
48156;BME280;35568;48.104;11.782;2024-03-08T09:07:16;94947.86;;;5.94;42.19
48156;BME280;35568;48.104;11.782;2024-03-08T09:09:43;94945.25;;;6.26;42.89
48156;BME280;35568;48.104;11.782;2024-03-08T09:12:11;94944.60;;;7.02;41.73
48156;BME280;35568;48.104;11.782;2024-03-08T09:14:38;94942.83;;;6.51;40.83
48156;BME280;35568;48.104;11.782;2024-03-08T09:17:05;94945.65;;;6.76;41.31
48156;BME280;35568;48.104;11.782;2024-03-08T09:19:32;94943.62;;;7.57;40.51
48156;BME280;35568;48.104;11.782;2024-03-08T09:21:59;94945.17;;;8.25;40.22
48156;BME280;35568;48.104;11.782;2024-03-08T09:24:27;94941.93;;;8.36;38.47
48156;BME280;35568;48.104;11.782;2024-03-08T09:26:54;94936.37;;;8.16;39.29
48156;BME280;35568;48.104;11.782;2024-03-08T09:29:21;94934.80;;;8.18;38.68
48156;BME280;35568;48.104;11.782;2024-03-08T09:31:48;94933.68;;;8.54;39.01
48156;BME280;35568;48.104;11.782;2024-03-08T09:34:14;94929.62;;;7.81;38.69
48156;BME280;35568;48.104;11.782;2024-03-08T09:36:41;94927.73;;;8.26;38.89
48156;BME280;35568;48.104;11.782;2024-03-08T09:39:08;94922.85;;;8.64;38.33
48156;BME280;35568;48.104;11.782;2024-03-08T09:41:36;94921.88;;;8.26;38.24
48156;BME280;35568;48.104;11.782;2024-03-08T09:44:04;94924.01;;;8.57;38.53
48156;BME280;35568;48.104;11.782;2024-03-08T09:46:31;94916.59;;;8.88;38.37
48156;BME280;35568;48.104;11.782;2024-03-08T09:48:58;94910.88;;;9.53;37.84
48156;BME280;35568;48.104;11.782;2024-03-08T09:51:28;94914.87;;;9.78;37.17
48156;BME280;35568;48.104;11.782;2024-03-08T09:53:55;94913.11;;;9.74;37.22
48156;BME280;35568;48.104;11.782;2024-03-08T09:56:23;94911.67;;;9.86;36.32
48156;BME280;35568;48.104;11.782;2024-03-08T09:58:51;94907.31;;;9.56;36.32
48156;BME280;35568;48.104;11.782;2024-03-08T10:01:18;94900.96;;;10.07;36.22
48156;BME280;35568;48.104;11.782;2024-03-08T10:03:47;94904.27;;;9.45;35.93
48156;BME280;35568;48.104;11.782;2024-03-08T10:06:14;94902.83;;;10.41;35.50
48156;BME280;35568;48.104;11.782;2024-03-08T10:08:41;94900.51;;;10.95;35.57
48156;BME280;35568;48.104;11.782;2024-03-08T10:11:09;94902.89;;;10.86;34.95
48156;BME280;35568;48.104;11.782;2024-03-08T10:13:36;94895.44;;;10.09;34.97
48156;BME280;35568;48.104;11.782;2024-03-08T10:16:03;94896.30;;;10.62;34.59
48156;BME280;35568;48.104;11.782;2024-03-08T10:18:32;94893.17;;;11.22;34.50
48156;BME280;35568;48.104;11.782;2024-03-08T10:21:04;94893.49;;;10.90;34.05
48156;BME280;35568;48.104;11.782;2024-03-08T10:23:31;94888.20;;;11.01;33.98
48156;BME280;35568;48.104;11.782;2024-03-08T10:26:10;94886.48;;;11.10;33.70
48156;BME280;35568;48.104;11.782;2024-03-08T10:28:37;94884.98;;;10.98;34.18
48156;BME280;35568;48.104;11.782;2024-03-08T10:31:04;94879.58;;;10.62;34.20
48156;BME280;35568;48.104;11.782;2024-03-08T10:33:32;94879.92;;;11.05;34.38
48156;BME280;35568;48.104;11.782;2024-03-08T10:35:59;94877.40;;;11.28;33.56
48156;BME280;35568;48.104;11.782;2024-03-08T10:38:31;94878.04;;;12.32;33.39
48156;BME280;35568;48.104;11.782;2024-03-08T10:40:59;94877.11;;;12.97;31.28
48156;BME280;35568;48.104;11.782;2024-03-08T10:43:28;94872.68;;;12.63;31.70
48156;BME280;35568;48.104;11.782;2024-03-08T10:46:06;94870.41;;;13.40;32.30
48156;BME280;35568;48.104;11.782;2024-03-08T10:48:41;94868.06;;;13.18;30.57
48156;BME280;35568;48.104;11.782;2024-03-08T10:51:11;94861.81;;;13.29;31.16
48156;BME280;35568;48.104;11.782;2024-03-08T10:53:39;94868.23;;;13.32;31.40
48156;BME280;35568;48.104;11.782;2024-03-08T10:56:07;94863.69;;;13.52;31.79
48156;BME280;35568;48.104;11.782;2024-03-08T10:58:36;94861.27;;;13.83;30.21
48156;BME280;35568;48.104;11.782;2024-03-08T11:01:04;94858.61;;;13.56;30.65
48156;BME280;35568;48.104;11.782;2024-03-08T11:03:47;94856.40;;;13.59;30.41
48156;BME280;35568;48.104;11.782;2024-03-08T11:06:17;94856.79;;;13.57;30.59
48156;BME280;35568;48.104;11.782;2024-03-08T11:08:45;94853.48;;;13.79;29.90
48156;BME280;35568;48.104;11.782;2024-03-08T11:11:30;94849.80;;;13.66;30.01
48156;BME280;35568;48.104;11.782;2024-03-08T11:13:57;94844.96;;;14.23;30.19
48156;BME280;35568;48.104;11.782;2024-03-08T11:16:44;94840.82;;;14.23;29.59
48156;BME280;35568;48.104;11.782;2024-03-08T11:19:27;94835.10;;;15.01;29.51
48156;BME280;35568;48.104;11.782;2024-03-08T11:21:58;94832.14;;;14.98;28.29
48156;BME280;35568;48.104;11.782;2024-03-08T11:24:26;94832.04;;;15.08;29.48
48156;BME280;35568;48.104;11.782;2024-03-08T11:26:57;94823.87;;;15.04;28.52
48156;BME280;35568;48.104;11.782;2024-03-08T11:29:40;94822.46;;;13.89;29.19
48156;BME280;35568;48.104;11.782;2024-03-08T11:32:08;94816.23;;;15.50;27.74
48156;BME280;35568;48.104;11.782;2024-03-08T11:34:36;94810.37;;;15.56;27.76
48156;BME280;35568;48.104;11.782;2024-03-08T11:37:04;94812.65;;;15.00;28.68
48156;BME280;35568;48.104;11.782;2024-03-08T11:39:32;94800.41;;;14.93;28.83
48156;BME280;35568;48.104;11.782;2024-03-08T11:41:58;94802.91;;;15.24;28.39
48156;BME280;35568;48.104;11.782;2024-03-08T11:44:27;94798.54;;;15.23;29.05
48156;BME280;35568;48.104;11.782;2024-03-08T11:46:54;94798.04;;;15.36;28.79
48156;BME280;35568;48.104;11.782;2024-03-08T11:49:21;94797.86;;;14.72;29.23
48156;BME280;35568;48.104;11.782;2024-03-08T11:51:51;94798.30;;;15.51;28.62
48156;BME280;35568;48.104;11.782;2024-03-08T11:54:19;94794.25;;;14.82;28.47
48156;BME280;35568;48.104;11.782;2024-03-08T11:56:47;94792.25;;;15.38;28.65
48156;BME280;35568;48.104;11.782;2024-03-08T11:59:14;94790.57;;;15.85;28.50
48156;BME280;35568;48.104;11.782;2024-03-08T12:01:42;94784.93;;;16.01;27.61
48156;BME280;35568;48.104;11.782;2024-03-08T12:04:12;94776.55;;;16.38;27.33
48156;BME280;35568;48.104;11.782;2024-03-08T12:06:40;94777.87;;;16.31;27.80
48156;BME280;35568;48.104;11.782;2024-03-08T12:09:09;94775.47;;;16.05;27.37
48156;BME280;35568;48.104;11.782;2024-03-08T12:11:36;94775.21;;;15.77;27.21
48156;BME280;35568;48.104;11.782;2024-03-08T12:14:03;94769.53;;;15.90;27.62
48156;BME280;35568;48.104;11.782;2024-03-08T12:16:31;94773.29;;;15.83;27.44
48156;BME280;35568;48.104;11.782;2024-03-08T12:18:59;94771.87;;;16.13;26.99
48156;BME280;35568;48.104;11.782;2024-03-08T12:21:27;94763.58;;;16.04;27.28
48156;BME280;35568;48.104;11.782;2024-03-08T12:24:04;94755.69;;;15.97;26.87
48156;BME280;35568;48.104;11.782;2024-03-08T12:26:31;94751.82;;;14.76;27.79
48156;BME280;35568;48.104;11.782;2024-03-08T12:29:15;94750.12;;;16.16;27.03
48156;BME280;35568;48.104;11.782;2024-03-08T12:31:42;94747.65;;;16.34;26.66
48156;BME280;35568;48.104;11.782;2024-03-08T12:34:10;94745.09;;;15.89;26.95
48156;BME280;35568;48.104;11.782;2024-03-08T12:36:37;94739.66;;;16.05;26.72
48156;BME280;35568;48.104;11.782;2024-03-08T12:39:06;94739.64;;;16.43;25.99
48156;BME280;35568;48.104;11.782;2024-03-08T12:41:39;94733.23;;;16.97;26.21
48156;BME280;35568;48.104;11.782;2024-03-08T12:44:06;94728.27;;;16.88;26.09
48156;BME280;35568;48.104;11.782;2024-03-08T12:46:33;94728.95;;;16.83;25.98
48156;BME280;35568;48.104;11.782;2024-03-08T12:49:00;94726.82;;;16.27;25.90
48156;BME280;35568;48.104;11.782;2024-03-08T12:51:28;94717.11;;;16.03;25.88
48156;BME280;35568;48.104;11.782;2024-03-08T12:53:55;94714.30;;;16.02;26.58
48156;BME280;35568;48.104;11.782;2024-03-08T12:56:29;94709.43;;;15.42;26.61
48156;BME280;35568;48.104;11.782;2024-03-08T12:58:56;94708.80;;;15.87;26.45
48156;BME280;35568;48.104;11.782;2024-03-08T13:01:23;94708.46;;;16.11;26.69
48156;BME280;35568;48.104;11.782;2024-03-08T13:03:50;94701.94;;;15.56;26.31